Archiv-/Tagesdaten

--Timestamp---	Temp	Chill	HIndex	Humid	Dewpt	 Wind 	HiWind	WindDir	Rain 	Barom	Solar	 ET  	 UV 
--------------	----	-----	------	-----	-----	------	------	-------	-----	-----	-----	-----	----
20100710 00:00	20.9	20.9	20.9	60	12.8	0	5	135	0.0	1018.5	0	0.051	0.0
20100710 00:05	20.8	20.8	20.8	60	12.7	2	5	135	0.0	1018.4	0	0.000	0.0
20100710 00:10	20.7	20.7	20.7	59	12.4	0	3	135	0.0	1018.5	0	0.000	0.0
20100710 00:15	20.8	20.8	20.8	60	12.7	2	6	135	0.0	1018.5	0	0.000	0.0
20100710 00:20	20.8	20.8	20.8	60	12.7	0	2	135	0.0	1018.5	0	0.000	0.0
20100710 00:25	20.7	20.7	20.7	62	13.2	0	2	135	0.0	1018.5	0	0.000	0.0
20100710 00:30	20.6	20.6	20.6	61	12.8	0	2	135	0.0	1018.5	0	0.000	0.0
20100710 00:35	20.4	20.4	20.4	61	12.7	0	3	135	0.0	1018.5	0	0.000	0.0
20100710 00:40	20.3	20.3	20.3	62	12.8	0	2	135	0.0	1018.6	0	0.000	0.0
20100710 00:45	20.3	20.3	20.3	62	12.8	0	3	135	0.0	1018.6	0	0.000	0.0
20100710 00:50	20.2	20.2	20.2	62	12.7	0	2	135	0.0	1018.7	0	0.000	0.0
20100710 00:55	20.2	20.2	20.2	63	12.9	0	3	135	0.0	1018.7	0	0.000	0.0
20100710 01:00	20.1	20.1	20.1	63	12.8	0	2	135	0.0	1018.7	0	0.025	0.0
20100710 01:05	20.0	20.0	20.0	64	13.0	0	0	-100000	0.0	1018.6	0	0.000	0.0
20100710 01:10	19.8	19.8	19.8	66	13.3	0	0	-100000	0.0	1018.5	0	0.000	0.0
20100710 01:15	19.7	19.7	19.7	65	12.9	0	0	-100000	0.0	1018.6	0	0.000	0.0
20100710 01:20	19.5	19.5	19.5	67	13.2	0	3	135	0.0	1018.7	0	0.000	0.0
20100710 01:25	19.3	19.3	19.3	67	13.0	0	3	135	0.0	1018.7	0	0.000	0.0
20100710 01:30	19.2	19.2	19.2	67	12.9	0	3	135	0.0	1018.8	0	0.000	0.0
20100710 01:35	19.2	19.2	19.2	67	12.9	0	3	135	0.0	1018.8	0	0.000	0.0
20100710 01:40	19.2	19.2	19.2	67	12.9	0	0	-100000	0.0	1018.8	0	0.000	0.0
20100710 01:45	19.2	19.2	19.2	67	12.9	0	0	-100000	0.0	1018.8	0	0.000	0.0
20100710 01:50	19.1	19.1	19.1	68	13.1	0	2	135	0.0	1018.8	0	0.000	0.0
20100710 01:55	19.1	19.1	19.1	68	13.0	0	2	135	0.0	1018.8	0	0.000	0.0
20100710 02:00	19.0	19.0	19.0	68	13.0	0	2	135	0.0	1018.8	0	0.025	0.0
20100710 02:05	18.9	18.9	18.9	69	13.1	0	0	-100000	0.0	1018.7	0	0.000	0.0
20100710 02:10	18.8	18.8	18.8	69	13.0	0	0	-100000	0.0	1018.7	0	0.000	0.0
20100710 02:15	18.7	18.7	18.7	70	13.1	0	0	-100000	0.0	1018.6	0	0.000	0.0
20100710 02:20	18.6	18.6	18.6	70	13.0	0	0	-100000	0.0	1018.6	0	0.000	0.0
20100710 02:25	18.5	18.5	18.5	70	12.9	0	0	-100000	0.0	1018.8	0	0.000	0.0
20100710 02:30	18.4	18.4	18.4	71	13.0	0	0	-100000	0.0	1018.7	0	0.000	0.0
20100710 02:35	18.2	18.2	18.2	72	13.1	0	0	-100000	0.0	1018.7	0	0.000	0.0
20100710 02:40	18.2	18.2	18.2	72	13.0	0	0	-100000	0.0	1018.7	0	0.000	0.0
20100710 02:45	18.1	18.1	18.1	72	12.9	0	2	135	0.0	1018.7	0	0.000	0.0
20100710 02:50	18.0	18.0	18.0	73	13.1	0	0	-100000	0.0	1018.7	0	0.000	0.0
20100710 02:55	17.9	17.9	17.9	73	13.0	0	0	-100000	0.0	1018.7	0	0.000	0.0
20100710 03:00	17.8	17.8	17.8	73	12.9	0	0	-100000	0.0	1018.6	0	0.025	0.0
20100710 03:05	17.8	17.8	17.8	74	13.1	0	0	-100000	0.0	1018.5	0	0.000	0.0
20100710 03:10	17.7	17.7	17.7	74	13.0	0	0	-100000	0.0	1018.6	0	0.000	0.0
20100710 03:15	17.6	17.6	17.6	75	13.1	0	0	-100000	0.0	1018.5	0	0.000	0.0
20100710 03:20	17.4	17.4	17.4	75	12.9	0	0	-100000	0.0	1018.6	0	0.000	0.0
20100710 03:25	17.3	17.3	17.3	76	13.0	0	0	-100000	0.0	1018.5	0	0.000	0.0
20100710 03:30	17.2	17.2	17.2	76	12.9	0	0	-100000	0.0	1018.5	0	0.000	0.0
20100710 03:35	17.1	17.1	17.1	76	12.8	0	0	-100000	0.0	1018.5	0	0.000	0.0
20100710 03:40	17.1	17.1	17.1	76	12.8	0	2	135	0.0	1018.5	0	0.000	0.0
20100710 03:45	17.1	17.1	17.1	76	12.8	0	2	135	0.0	1018.5	0	0.000	0.0
20100710 03:50	17.1	17.1	17.1	76	12.8	0	3	135	0.0	1018.6	0	0.000	0.0
20100710 03:55	17.2	17.2	17.2	76	12.9	0	3	135	0.0	1018.6	0	0.000	0.0
20100710 04:00	17.1	17.1	17.1	76	12.8	0	0	-100000	0.0	1018.6	0	0.025	0.0
20100710 04:05	17.1	17.1	17.1	76	12.8	0	2	135	0.0	1018.6	0	0.000	0.0
20100710 04:10	17.1	17.1	17.1	76	12.8	0	2	135	0.0	1018.6	0	0.000	0.0
20100710 04:15	17.1	17.1	17.1	76	12.8	0	0	-100000	0.0	1018.6	0	0.000	0.0
20100710 04:20	17.1	17.1	17.1	76	12.8	0	0	-100000	0.0	1018.6	0	0.000	0.0
20100710 04:25	17.1	17.1	17.1	76	12.8	0	0	-100000	0.0	1018.5	0	0.000	0.0
20100710 04:30	17.0	17.0	17.0	76	12.7	0	0	-100000	0.0	1018.5	0	0.000	0.0
20100710 04:35	17.0	17.0	17.0	77	12.9	0	2	135	0.0	1018.5	0	0.000	0.0
20100710 04:40	17.0	17.0	17.0	77	12.9	0	0	-100000	0.0	1018.4	0	0.000	0.0
20100710 04:45	16.9	16.9	16.9	77	12.9	0	0	-100000	0.0	1018.5	0	0.000	0.0
20100710 04:50	16.9	16.9	16.9	77	12.9	0	0	-100000	0.0	1018.5	0	0.000	0.0
20100710 04:55	16.9	16.9	16.9	78	13.1	0	2	135	0.0	1018.5	0	0.000	0.0
20100710 05:00	16.9	16.9	16.9	78	13.1	0	2	135	0.0	1018.5	0	0.025	0.0
20100710 05:05	16.9	16.9	16.9	78	13.1	0	2	135	0.0	1018.7	0	0.000	0.0
20100710 05:10	16.9	16.9	16.9	78	13.0	0	0	-100000	0.0	1018.8	0	0.000	0.0
20100710 05:15	16.8	16.8	16.8	78	13.0	0	0	-100000	0.0	1018.8	0	0.000	0.0
20100710 05:20	16.8	16.8	16.8	78	12.9	0	0	-100000	0.0	1018.8	0	0.000	0.0
20100710 05:25	16.7	16.7	16.7	78	12.9	0	0	-100000	0.0	1018.8	4	0.000	0.0
20100710 05:30	16.6	16.6	16.6	79	13.0	0	0	-100000	0.0	1018.8	7	0.000	0.0
20100710 05:35	16.5	16.5	16.5	79	12.8	0	0	-100000	0.0	1018.9	10	0.000	0.0
20100710 05:40	16.4	16.4	16.4	79	12.8	0	0	-100000	0.0	1018.9	12	0.000	0.0
20100710 05:45	16.4	16.4	16.4	80	13.0	0	0	-100000	0.0	1018.9	15	0.000	0.0
20100710 05:50	16.4	16.4	16.4	80	12.9	0	0	-100000	0.0	1018.9	19	0.000	0.0
20100710 05:55	16.4	16.4	16.4	80	13.0	0	0	-100000	0.0	1019.0	23	0.000	0.0
20100710 06:00	16.4	16.4	16.4	80	13.0	0	0	-100000	0.0	1019.0	27	0.000	0.0
20100710 06:05	16.5	16.5	16.5	80	13.0	0	0	-100000	0.0	1019.0	33	0.000	0.0
20100710 06:10	16.6	16.6	16.6	80	13.1	0	0	-100000	0.0	1019.0	38	0.000	0.0
20100710 06:15	16.7	16.7	16.7	80	13.2	0	0	-100000	0.0	1019.1	41	0.000	0.0
20100710 06:20	16.7	16.7	16.7	80	13.3	0	0	-100000	0.0	1019.1	43	0.000	0.0
20100710 06:25	16.8	16.8	16.8	80	13.4	0	0	-100000	0.0	1019.1	45	0.000	0.0
20100710 06:30	17.0	17.0	17.0	80	13.5	0	2	135	0.0	1019.1	47	0.000	0.0
20100710 06:35	17.1	17.1	17.1	79	13.4	0	2	135	0.0	1019.1	50	0.000	0.0
20100710 06:40	17.3	17.3	17.3	78	13.4	2	6	135	0.0	1019.1	52	0.000	0.0
20100710 06:45	17.4	17.4	17.4	77	13.4	0	5	135	0.0	1019.1	54	0.000	0.0
20100710 06:50	17.6	17.6	17.6	77	13.5	0	2	135	0.0	1019.1	71	0.000	0.0
20100710 06:55	17.8	17.8	17.8	77	13.7	0	3	225	0.0	1019.1	126	0.000	0.0
20100710 07:00	18.2	18.2	18.2	76	13.9	0	3	225	0.0	1019.0	138	0.051	0.0
20100710 07:05	18.7	18.7	18.7	74	14.0	0	3	225	0.0	1019.2	150	0.000	0.0
20100710 07:10	19.2	19.2	19.2	73	14.3	0	2	225	0.0	1019.2	165	0.000	0.0
20100710 07:15	19.7	19.7	19.7	72	14.5	0	2	225	0.0	1019.1	180	0.000	0.3
20100710 07:20	20.0	20.0	20.0	70	14.4	0	3	225	0.0	1019.1	194	0.000	0.5
20100710 07:25	20.2	20.2	20.2	70	14.6	0	3	225	0.0	1019.1	208	0.000	0.6
20100710 07:30	20.4	20.4	20.4	70	14.8	0	3	225	0.0	1019.0	222	0.000	0.6
20100710 07:35	20.7	20.7	20.7	70	15.0	2	5	225	0.0	1019.0	235	0.000	0.7
20100710 07:40	20.9	20.9	20.9	69	15.0	2	5	225	0.0	1019.0	249	0.000	0.7
20100710 07:45	21.2	21.2	21.2	69	15.2	2	6	225	0.0	1018.9	261	0.000	0.8
20100710 07:50	21.4	21.4	21.4	69	15.5	2	6	225	0.0	1018.8	271	0.000	0.9
20100710 07:55	21.6	21.6	21.6	67	15.2	3	6	225	0.0	1018.8	282	0.000	0.9
20100710 08:00	21.7	21.7	21.7	67	15.3	3	6	225	0.0	1018.8	294	0.127	1.0
20100710 08:05	21.8	21.8	21.8	68	15.7	2	5	225	0.0	1018.9	309	0.000	1.1
20100710 08:10	21.9	21.9	21.9	66	15.3	2	5	225	0.0	1018.9	323	0.000	1.2
20100710 08:15	22.2	22.2	22.2	65	15.3	0	5	225	0.0	1018.8	336	0.000	1.3
20100710 08:20	22.3	22.3	22.3	65	15.4	2	5	225	0.0	1018.8	350	0.000	1.3
20100710 08:25	22.6	22.6	22.6	65	15.6	0	3	225	0.0	1018.7	362	0.000	1.4
20100710 08:30	22.8	22.8	22.8	65	15.9	0	2	225	0.0	1018.8	374	0.000	1.5
20100710 08:35	23.2	23.2	23.2	64	16.0	0	2	225	0.0	1018.7	386	0.000	1.6
20100710 08:40	23.7	23.7	23.7	61	15.7	0	3	225	0.0	1018.8	400	0.000	1.7
20100710 08:45	24.2	24.2	25.4	60	16.0	0	2	225	0.0	1018.6	415	0.000	1.8
20100710 08:50	24.5	24.5	25.6	59	16.0	0	5	225	0.0	1018.6	428	0.000	1.9
20100710 08:55	24.7	24.7	25.7	59	16.1	2	5	225	0.0	1018.6	442	0.000	2.0
20100710 09:00	24.6	24.6	25.7	59	16.1	2	3	202	0.0	1018.6	455	0.229	2.2
20100710 09:05	24.6	24.6	25.7	60	16.3	0	3	202	0.0	1018.9	468	0.000	2.3
20100710 09:10	24.7	24.7	25.7	60	16.4	2	5	202	0.0	1018.9	480	0.000	2.4
20100710 09:15	24.8	24.8	25.8	60	16.5	2	5	202	0.0	1018.9	492	0.000	2.5
20100710 09:20	24.9	24.9	25.9	58	16.0	2	5	202	0.0	1018.9	505	0.000	2.7
20100710 09:25	25.0	25.0	26.0	60	16.7	0	3	202	0.0	1019.0	517	0.000	2.8
20100710 09:30	25.2	25.2	26.2	60	16.9	2	5	202	0.0	1018.9	530	0.000	2.9
20100710 09:35	25.4	25.4	26.4	59	16.8	2	6	180	0.0	1018.8	542	0.000	3.1
20100710 09:40	25.6	25.6	26.4	58	16.7	2	6	180	0.0	1018.8	554	0.000	3.2
20100710 09:45	25.6	25.6	26.5	58	16.7	2	5	68	0.0	1018.8	565	0.000	3.3
20100710 09:50	25.6	25.6	26.4	58	16.7	3	8	45	0.0	1018.8	576	0.000	3.5
20100710 09:55	25.5	25.5	26.4	60	17.2	2	6	45	0.0	1018.8	588	0.000	3.6
20100710 10:00	25.6	25.6	26.5	58	16.7	2	6	68	0.0	1018.8	598	0.356	3.8
20100710 10:05	25.8	25.8	26.6	56	16.4	2	6	68	0.0	1018.8	609	0.000	3.9
20100710 10:10	26.2	26.2	27.0	56	16.7	2	6	90	0.0	1018.9	618	0.000	4.0
20100710 10:15	26.4	26.4	27.3	57	17.2	3	8	90	0.0	1018.8	631	0.000	4.2
20100710 10:20	26.4	26.4	27.4	59	17.8	3	6	45	0.0	1018.8	641	0.000	4.4
20100710 10:25	26.3	26.3	27.1	56	16.8	3	6	22	0.0	1018.8	651	0.000	4.5
20100710 10:30	26.5	26.5	27.2	54	16.4	2	8	112	0.0	1018.7	663	0.000	4.7
20100710 10:35	26.9	26.9	27.6	54	16.8	2	6	112	0.0	1018.7	672	0.000	4.8
20100710 10:40	27.3	27.3	27.9	52	16.6	3	8	112	0.0	1018.5	681	0.000	5.0
20100710 10:45	27.6	27.6	28.1	51	16.5	3	8	112	0.0	1018.6	692	0.000	5.1
20100710 10:50	27.6	27.6	28.3	53	17.2	2	5	112	0.0	1018.5	702	0.000	5.3
20100710 10:55	27.8	27.8	28.5	53	17.4	2	6	112	0.0	1018.4	709	0.000	5.4
20100710 11:00	28.2	28.2	28.9	53	17.7	2	8	90	0.0	1018.4	717	0.457	5.5
20100710 11:05	28.0	28.0	28.7	53	17.5	3	8	68	0.0	1018.4	724	0.000	5.7
20100710 11:10	27.9	27.9	28.6	52	17.2	5	11	68	0.0	1018.4	735	0.000	5.8
20100710 11:15	27.8	27.8	28.5	53	17.3	5	11	68	0.0	1018.4	742	0.000	6.0
20100710 11:20	27.8	27.8	28.6	54	17.6	6	11	22	0.0	1018.4	746	0.000	6.1
20100710 11:25	27.9	27.9	28.7	53	17.5	5	10	68	0.0	1018.4	757	0.000	6.3
20100710 11:30	28.1	28.1	28.8	53	17.6	5	10	45	0.0	1018.5	762	0.000	6.4
20100710 11:35	28.1	28.1	28.7	51	17.0	3	8	90	0.0	1018.5	772	0.000	6.5
20100710 11:40	28.2	28.2	28.8	51	17.1	3	8	68	0.0	1018.5	779	0.000	6.7
20100710 11:45	28.4	28.4	28.9	49	16.7	5	10	45	0.0	1018.5	789	0.000	6.8
20100710 11:50	28.5	28.5	28.7	47	16.1	5	8	90	0.0	1018.5	794	0.000	6.9
20100710 11:55	28.7	28.7	28.6	44	15.2	6	14	90	0.0	1018.3	801	0.000	7.1
20100710 12:00	28.8	28.8	28.8	45	15.6	6	10	90	0.0	1018.2	807	0.533	7.2
20100710 12:05	28.9	28.9	29.0	45	15.8	3	10	90	0.0	1018.4	810	0.000	7.2
20100710 12:10	29.1	29.1	29.3	46	16.2	8	14	68	0.0	1018.3	814	0.000	7.4
20100710 12:15	29.1	29.1	29.1	44	15.5	6	11	22	0.0	1018.3	821	0.000	7.5
20100710 12:20	29.1	29.1	28.9	43	15.2	6	11	45	0.0	1018.4	825	0.000	7.5
20100710 12:25	29.2	29.2	29.2	44	15.6	5	11	68	0.0	1018.3	829	0.000	7.6
20100710 12:30	29.3	29.3	29.3	44	15.7	6	11	68	0.0	1018.2	833	0.000	7.7
20100710 12:35	29.4	29.4	29.8	47	16.9	5	11	68	0.0	1018.2	835	0.000	7.7
20100710 12:40	29.6	29.6	30.0	47	17.0	3	8	68	0.0	1018.2	837	0.000	7.8
20100710 12:45	29.6	29.6	30.4	50	18.0	5	11	68	0.0	1018.1	836	0.000	7.8
20100710 12:50	29.6	29.6	29.9	46	16.7	5	11	90	0.0	1018.2	843	0.000	7.9
20100710 12:55	29.8	29.8	29.8	43	15.9	5	10	68	0.0	1018.0	846	0.000	8.0
20100710 13:00	29.9	29.9	29.9	43	15.9	6	10	68	0.0	1018.0	847	0.610	8.0
20100710 13:05	29.9	29.9	30.2	45	16.6	5	11	68	0.0	1018.0	848	0.000	8.0
20100710 13:10	29.9	29.9	30.4	47	17.3	6	11	68	0.0	1018.0	849	0.000	8.0
20100710 13:15	29.9	29.9	30.2	45	16.6	5	14	45	0.0	1018.0	848	0.000	8.0
20100710 13:20	29.9	29.9	30.7	48	17.7	5	11	45	0.0	1018.0	847	0.000	8.0
20100710 13:25	29.9	29.9	30.5	47	17.4	8	16	45	0.0	1017.8	845	0.000	7.9
20100710 13:30	30.1	30.1	30.1	43	16.1	6	11	68	0.0	1017.8	849	0.000	8.0
20100710 13:35	30.3	30.3	30.8	46	17.3	6	14	112	0.0	1017.8	849	0.000	8.0
20100710 13:40	30.3	30.3	31.0	47	17.7	6	13	90	0.0	1017.7	843	0.000	7.9
20100710 13:45	30.3	30.3	30.8	46	17.3	8	16	68	0.0	1017.7	833	0.000	7.7
20100710 13:50	30.3	30.3	30.9	46	17.4	8	16	68	0.0	1017.7	837	0.000	7.8
20100710 13:55	30.3	30.3	31.1	47	17.7	5	11	45	0.0	1017.7	835	0.000	7.7
20100710 14:00	30.4	30.4	31.0	46	17.4	6	14	68	0.0	1017.7	827	0.635	7.6
20100710 14:05	30.5	30.5	31.0	45	17.2	8	14	68	0.0	1017.8	824	0.000	7.5
20100710 14:10	30.6	30.6	31.2	46	17.6	6	11	68	0.0	1017.8	835	0.000	7.7
20100710 14:15	30.6	30.6	30.8	43	16.6	8	16	68	0.0	1017.7	825	0.000	7.5
20100710 14:20	30.6	30.6	31.0	44	16.9	6	11	68	0.0	1017.6	821	0.000	7.5
20100710 14:25	30.6	30.6	30.8	43	16.6	6	14	45	0.0	1017.5	815	0.000	7.4
20100710 14:30	30.6	30.6	31.0	44	16.9	8	18	45	0.0	1017.6	816	0.000	7.3
20100710 14:35	30.6	30.6	30.8	43	16.6	8	18	68	0.0	1017.5	816	0.000	7.3
20100710 14:40	30.6	30.6	31.0	44	16.9	8	18	68	0.0	1017.6	812	0.000	7.2
20100710 14:45	30.8	30.8	31.1	43	16.7	10	18	90	0.0	1017.5	806	0.000	7.0
20100710 14:50	30.9	30.9	31.1	42	16.5	6	16	68	0.0	1017.4	799	0.000	6.9
20100710 14:55	31.0	31.0	31.2	42	16.6	8	14	68	0.0	1017.3	797	0.000	6.9
20100710 15:00	31.1	31.1	31.5	43	17.0	8	16	45	0.0	1017.2	789	0.635	6.7
20100710 15:05	31.2	31.2	31.0	39	15.5	10	19	68	0.0	1017.4	788	0.000	6.7
20100710 15:10	31.2	31.2	31.4	41	16.4	6	11	68	0.0	1017.3	784	0.000	6.6
20100710 15:15	31.3	31.3	31.5	41	16.5	10	19	22	0.0	1017.3	779	0.000	6.5
20100710 15:20	31.2	31.2	31.2	40	16.0	10	19	68	0.0	1017.2	774	0.000	6.4
20100710 15:25	31.4	31.4	31.6	41	16.5	8	19	68	0.0	1017.1	770	0.000	6.2
20100710 15:30	31.2	31.2	31.1	40	15.9	11	18	45	0.0	1017.1	740	0.000	5.9
20100710 15:35	31.1	31.1	31.1	40	15.9	6	14	68	0.0	1017.1	684	0.000	5.7
20100710 15:40	31.3	31.3	31.1	39	15.6	8	18	45	0.0	1017.1	715	0.000	5.6
20100710 15:45	31.3	31.3	31.1	38	15.3	6	13	68	0.0	1017.2	701	0.000	5.5
20100710 15:50	31.2	31.2	31.0	39	15.5	8	14	45	0.0	1017.1	687	0.000	5.3
20100710 15:55	31.2	31.2	31.1	39	15.6	10	18	45	0.0	1017.1	707	0.000	5.3
20100710 16:00	31.3	31.3	31.1	39	15.6	8	16	68	0.0	1017.0	667	0.584	5.0
20100710 16:05	31.2	31.2	30.8	37	14.8	10	18	45	0.0	1017.1	677	0.000	4.9
20100710 16:10	31.2	31.2	30.7	37	14.7	8	18	22	0.0	1017.0	682	0.000	4.9
20100710 16:15	31.2	31.2	30.9	38	15.2	10	18	45	0.0	1017.0	682	0.000	4.7
20100710 16:20	31.2	31.2	30.9	38	15.2	10	16	68	0.0	1017.0	671	0.000	4.6
20100710 16:25	31.2	31.2	30.8	37	14.8	10	18	68	0.0	1016.9	668	0.000	4.4
20100710 16:30	31.1	31.1	30.6	37	14.6	10	16	45	0.0	1016.9	619	0.000	4.2
20100710 16:35	31.1	31.1	30.7	38	15.0	10	14	68	0.0	1016.8	616	0.000	4.0
20100710 16:40	31.1	31.1	30.6	37	14.6	11	19	45	0.0	1016.8	612	0.000	3.9
20100710 16:45	31.1	31.1	30.4	36	14.2	10	16	68	0.0	1016.7	552	0.000	3.5
20100710 16:50	30.9	30.9	30.3	36	14.1	11	18	68	0.0	1016.7	558	0.000	3.5
20100710 16:55	31.0	31.0	30.5	37	14.6	6	11	68	0.0	1016.6	518	0.000	3.3
20100710 17:00	31.1	31.1	30.6	37	14.6	8	11	68	0.0	1016.6	484	0.508	3.1
20100710 17:05	30.9	30.9	30.6	38	14.9	10	18	68	0.0	1016.6	442	0.000	2.9
20100710 17:10	30.7	30.7	30.3	38	14.7	10	16	68	0.0	1016.6	510	0.000	3.0
20100710 17:15	30.6	30.6	30.2	38	14.7	6	16	68	0.0	1016.6	460	0.000	2.7
20100710 17:20	30.6	30.6	30.2	38	14.7	10	16	68	0.0	1016.6	462	0.000	2.6
20100710 17:25	30.7	30.7	30.2	38	14.7	8	14	45	0.0	1016.6	459	0.000	2.5
20100710 17:30	30.6	30.6	30.2	38	14.7	6	11	68	0.0	1016.6	457	0.000	2.4
20100710 17:35	30.6	30.6	30.2	39	15.0	8	16	68	0.0	1016.6	468	0.000	2.3
20100710 17:40	30.6	30.6	30.2	39	15.0	10	14	68	0.0	1016.5	428	0.000	2.2
20100710 17:45	30.5	30.5	30.0	38	14.6	10	14	68	0.0	1016.5	430	0.000	2.1
20100710 17:50	30.6	30.6	30.1	38	14.6	8	16	68	0.0	1016.5	458	0.000	2.1
20100710 17:55	30.6	30.6	30.1	38	14.6	8	16	68	0.0	1016.4	454	0.000	1.9
20100710 18:00	30.6	30.6	30.1	38	14.6	8	14	68	0.0	1016.3	431	0.406	1.8
20100710 18:05	30.4	30.4	30.1	39	14.9	8	14	68	0.0	1016.1	411	0.000	1.7
20100710 18:10	30.4	30.4	30.2	40	15.3	8	16	68	0.0	1016.0	394	0.000	1.6
20100710 18:15	30.3	30.3	30.1	41	15.5	10	18	68	0.0	1016.0	352	0.000	1.5
20100710 18:20	30.1	30.1	29.9	41	15.4	8	14	68	0.0	1016.1	323	0.000	1.3
20100710 18:25	29.9	29.9	29.7	41	15.2	8	13	68	0.0	1016.1	350	0.000	1.3
20100710 18:30	30.0	30.0	30.1	43	16.0	5	11	68	0.0	1016.0	350	0.000	1.2
20100710 18:35	30.1	30.1	30.3	44	16.4	5	10	68	0.0	1016.0	329	0.000	1.1
20100710 18:40	30.0	30.0	30.2	44	16.4	5	11	68	0.0	1015.9	300	0.000	1.0
20100710 18:45	29.9	29.9	30.2	45	16.7	3	8	68	0.0	1015.9	276	0.000	0.9
20100710 18:50	29.8	29.8	29.9	44	16.2	5	11	90	0.0	1015.8	263	0.000	0.9
20100710 18:55	29.7	29.7	30.0	45	16.5	5	8	90	0.0	1015.8	274	0.000	0.8
20100710 19:00	29.6	29.6	29.8	45	16.4	3	6	90	0.0	1015.8	211	0.279	0.7
20100710 19:05	29.4	29.4	29.7	46	16.6	3	8	68	0.0	1015.4	234	0.000	0.7
20100710 19:10	29.3	29.3	29.8	48	17.2	3	8	68	0.0	1015.5	216	0.000	0.6
20100710 19:15	29.2	29.2	29.6	47	16.7	5	8	90	0.0	1015.5	217	0.000	0.6
20100710 19:20	29.1	29.1	29.6	48	17.0	3	6	90	0.0	1015.7	203	0.000	0.5
20100710 19:25	28.9	28.9	29.2	47	16.5	5	10	90	0.0	1015.7	142	0.000	0.5
20100710 19:30	28.8	28.8	29.0	47	16.3	5	8	90	0.0	1015.7	87	0.000	0.0
20100710 19:35	28.7	28.7	28.9	47	16.2	2	8	90	0.0	1015.8	82	0.000	0.0
20100710 19:40	28.6	28.6	28.8	47	16.1	3	6	90	0.0	1015.9	76	0.000	0.0
20100710 19:45	28.4	28.4	28.7	47	16.0	2	5	90	0.0	1015.9	72	0.000	0.0
20100710 19:50	28.4	28.4	28.5	46	15.6	3	6	90	0.0	1015.8	69	0.000	0.0
20100710 19:55	28.3	28.3	28.5	47	15.9	2	6	68	0.0	1015.7	64	0.000	0.0
20100710 20:00	28.2	28.2	28.4	47	15.8	2	6	112	0.0	1015.8	59	0.127	0.0
20100710 20:05	28.1	28.1	28.2	47	15.7	2	6	112	0.0	1015.5	54	0.000	0.0
20100710 20:10	27.9	27.9	28.1	47	15.5	2	5	112	0.0	1015.5	49	0.000	0.0
20100710 20:15	27.7	27.7	28.0	48	15.7	2	5	112	0.0	1015.5	44	0.000	0.0
20100710 20:20	27.6	27.6	27.8	48	15.5	2	5	112	0.0	1015.5	41	0.000	0.0
20100710 20:25	27.4	27.4	27.7	49	15.7	0	3	112	0.0	1015.5	37	0.000	0.0
20100710 20:30	27.2	27.2	27.6	49	15.6	0	3	112	0.0	1015.5	33	0.000	0.0
20100710 20:35	27.1	27.1	27.5	50	15.7	0	3	112	0.0	1015.5	29	0.000	0.0
20100710 20:40	26.9	26.9	27.3	50	15.6	0	2	112	0.0	1015.5	25	0.000	0.0
20100710 20:45	26.7	26.7	27.2	51	15.7	0	3	112	0.0	1015.5	21	0.000	0.0
20100710 20:50	26.5	26.5	27.1	52	15.8	0	3	112	0.0	1015.4	17	0.000	0.0
20100710 20:55	26.3	26.3	26.9	52	15.6	0	3	112	0.0	1015.5	13	0.000	0.0
20100710 21:00	26.1	26.1	26.8	53	15.8	0	3	112	0.0	1015.4	11	0.051	0.0
20100710 21:05	25.9	25.9	26.6	53	15.6	0	5	112	0.0	1015.2	8	0.000	0.0
20100710 21:10	25.7	25.7	26.4	53	15.4	0	2	112	0.0	1015.2	5	0.000	0.0
20100710 21:15	25.5	25.5	26.3	54	15.5	0	3	112	0.0	1015.2	0	0.000	0.0
20100710 21:20	25.3	25.3	26.2	55	15.6	0	2	112	0.0	1015.2	0	0.000	0.0
20100710 21:25	25.2	25.2	26.1	56	15.8	0	2	112	0.0	1015.3	0	0.000	0.0
20100710 21:30	24.9	24.9	25.9	56	15.5	0	2	112	0.0	1015.4	0	0.000	0.0
20100710 21:35	24.6	24.6	25.7	57	15.5	0	2	112	0.0	1015.4	0	0.000	0.0
20100710 21:40	24.4	24.4	25.6	57	15.4	0	3	112	0.0	1015.4	0	0.000	0.0
20100710 21:45	24.3	24.3	25.5	59	15.7	0	2	112	0.0	1015.4	0	0.000	0.0
20100710 21:50	24.1	24.1	25.3	59	15.5	0	0	-100000	0.0	1015.6	0	0.000	0.0
20100710 21:55	23.9	23.9	25.2	60	15.6	0	0	-100000	0.0	1015.6	0	0.000	0.0
20100710 22:00	23.7	23.7	23.7	60	15.4	0	0	-100000	0.0	1015.7	0	0.025	0.0
20100710 22:05	23.4	23.4	23.4	61	15.5	0	0	-100000	0.0	1015.5	0	0.000	0.0
20100710 22:10	23.2	23.2	23.2	62	15.5	0	0	-100000	0.0	1015.6	0	0.000	0.0
20100710 22:15	23.0	23.0	23.0	63	15.6	0	0	-100000	0.0	1015.5	0	0.000	0.0
20100710 22:20	22.8	22.8	22.8	64	15.6	0	0	-100000	0.0	1015.5	0	0.000	0.0
20100710 22:25	22.6	22.6	22.6	65	15.7	0	0	-100000	0.0	1015.6	0	0.000	0.0
20100710 22:30	22.4	22.4	22.4	65	15.5	0	0	-100000	0.0	1015.8	0	0.000	0.0
20100710 22:35	22.3	22.3	22.3	66	15.6	0	0	-100000	0.0	1015.8	0	0.000	0.0
20100710 22:40	22.1	22.1	22.1	67	15.6	0	0	-100000	0.0	1015.8	0	0.000	0.0
20100710 22:45	21.9	21.9	21.9	67	15.5	0	0	-100000	0.0	1015.8	0	0.000	0.0
20100710 22:50	21.8	21.8	21.8	68	15.7	0	0	-100000	0.0	1015.8	0	0.000	0.0
20100710 22:55	21.7	21.7	21.7	68	15.5	0	0	-100000	0.0	1015.8	0	0.000	0.0
20100710 23:00	21.6	21.6	21.6	68	15.4	0	0	-100000	0.0	1015.8	0	0.025	0.0
20100710 23:05	21.6	21.6	21.6	68	15.4	0	0	-100000	0.0	1015.8	0	0.000	0.0
20100710 23:10	21.5	21.5	21.5	68	15.3	0	0	-100000	0.0	1015.7	0	0.000	0.0
20100710 23:15	21.5	21.5	21.5	68	15.3	0	2	112	0.0	1015.7	0	0.000	0.0
20100710 23:20	21.3	21.3	21.3	69	15.4	0	2	112	0.0	1015.5	0	0.000	0.0
20100710 23:25	21.1	21.1	21.1	70	15.4	0	2	112	0.0	1015.5	0	0.000	0.0
20100710 23:30	20.8	20.8	20.8	71	15.4	0	2	112	0.0	1015.6	0	0.000	0.0
20100710 23:35	20.7	20.7	20.7	71	15.3	0	2	112	0.0	1015.8	0	0.000	0.0
20100710 23:40	20.7	20.7	20.7	71	15.3	0	0	-100000	0.0	1015.7	0	0.000	0.0
20100710 23:45	20.7	20.7	20.7	70	15.0	2	6	112	0.0	1015.6	0	0.000	0.0
20100710 23:50	20.6	20.6	20.6	70	14.9	2	5	112	0.0	1015.6	0	0.000	0.0
20100710 23:55	20.5	20.5	20.5	69	14.6	0	2	112	0.0	1015.6	0	0.000	0.0



Please note the license to use and transfer of this data:
http://creativecommons.org/licenses/by-nc-sa/3.0/deed.en

Bitte beachten sie die Lizenz zur Verwertung und Weitergabe der Daten:
http://creativecommons.org/licenses/by-nc-sa/3.0/deed.de

zurück zur Übersicht der Archivdaten (Monats und Tagesdaten)

Cookies helfen bei der Bereitstellung von Inhalten. Durch die Nutzung dieser Seiten erklärst du dich damit einverstanden, dass Cookies auf deinem Rechner gespeichert werden. Weitere Information